Flight Track Log - Related Links

Times and Time Zones

All times are in EDT time to prevent confusion due to time zone crossing. See the AAL2007 flight status page for this flight to view local times or setup timezone preferences in your user account.

Time Position Orientation Groundspeed Altitude Reporting Facility
EDT Latitude Longitude Course Direction KTS MPH feet Rate Location/Type
Thu 07:20:51 PM 41.9667 -87.8500 194° South 196 226 2,500  Level Chicago TRACON
Thu 07:21:51 PM 41.9000 -87.8000 151° Southeast 244 281 4,700 1,190 Climbing Chicago TRACON
Thu 07:22:00 PM 41.7221 -88.1666 201° Southwest  Level Estimated
Thu 07:22:57 PM 41.8333 -87.7833 169° South 249 287 5,000  Level Chicago TRACON
Thu 07:23:00 PM 41.6354 -88.2527 197° South  Level Estimated
Thu 07:24:00 PM 41.5345 -88.2014 159° South  Level FlightAware Approximate
Thu 07:24:46 PM 41.7239 -87.8406 201° Southwest 274 315 8,900  Level Chicago Center
Thu 07:25:00 PM 41.4483 -88.2880 207° Southwest  Level Estimated
Thu 07:25:48 PM 41.6658 -87.9056 220° Southwest 274 315 11,500  Level Chicago Center
Thu 07:26:00 PM 41.3631 -88.3732 194° South  Level Estimated
Thu 07:26:50 PM 41.5986 -87.9728 217° Southwest 298 343 12,700  Level Chicago Center
Thu 07:27:52 PM 41.5244 -88.0519 219° Southwest 340 391 14,700 2,177 Climbing Chicago Center
Thu 07:28:54 PM 41.4325 -88.1472 218° Southwest 363 418 17,200 2,195 Climbing Chicago Center
Thu 07:29:55 PM 41.3417 -88.2094 207° Southwest 381 438 19,200 1,756 Climbing Chicago Center
Thu 07:30:57 PM 41.2461 -88.2522 199° South 367 422 20,800 1,548 Climbing Chicago Center
Thu 07:31:59 PM 41.1272 -88.3058 199° South 378 435 22,400 1,355 Climbing Chicago Center
Thu 07:33:01 PM 41.0267 -88.3519 199° South 383 441 23,600 1,161 Climbing Chicago Center
Thu 07:34:03 PM 40.9244 -88.3964 198° South 387 445 24,800 1,161 Climbing Chicago Center
Thu 07:35:05 PM 40.8217 -88.4428 199° South 392 451 26,000 1,016 Climbing Chicago Center
Thu 07:36:07 PM 40.7172 -88.4900 199° South 396 456 26,900 871 Climbing Chicago Center
Thu 07:37:09 PM 40.6286 -88.5725 215° Southwest 394 453 27,800 968 Climbing Chicago Center
Thu 07:38:11 PM 40.5264 -88.6886 221° Southwest 403 464 28,900 871 Climbing Chicago Center
Thu 07:39:13 PM 40.4464 -88.7761 220° Southwest 408 470 29,600 823 Climbing Chicago Center
Thu 07:40:15 PM 40.3583 -88.8731 220° Southwest 408 470 30,600 919 Climbing Chicago Center
Thu 07:41:17 PM 40.2719 -88.9683 220° Southwest 409 471 31,500 677 Climbing Chicago Center
Thu 07:42:19 PM 40.1847 -89.0650 220° Southwest 409 471 32,000 280 Climbing Chicago Center
Thu 07:43:04 PM 40.1136 -89.1411 219° Southwest 405 466 32,000  Level Kansas City Center
Thu 07:44:06 PM 40.0272 -89.2353 220° Southwest 405 466 32,000  Level Kansas City Center
Thu 07:45:08 PM 39.9236 -89.3483 220° Southwest 404 465 32,000  Level Kansas City Center
Thu 07:46:10 PM 39.8361 -89.4417 219° Southwest 405 466 32,000  Level Kansas City Center
Thu 07:47:11 PM 39.7492 -89.5375 220° Southwest 406 467 32,000  Level Kansas City Center
Thu 07:48:13 PM 39.6722 -89.6208 220° Southwest 402 463 32,000  Level Kansas City Center
Thu 07:49:15 PM 39.5683 -89.7331 220° Southwest 405 466 32,000  Level Kansas City Center
Thu 07:50:17 PM 39.4808 -89.8256 219° Southwest 407 468 32,000  Level Kansas City Center
Thu 07:51:19 PM 39.3933 -89.9186 219° Southwest 409 471 32,000  Level Kansas City Center
Thu 07:52:20 PM 39.3050 -90.0119 219° Southwest 410 472 32,000  Level Kansas City Center
Thu 07:53:22 PM 39.2192 -90.1056 220° Southwest 407 468 32,000  Level Kansas City Center
Thu 07:54:24 PM 39.1328 -90.1964 219° Southwest 404 465 32,000  Level Kansas City Center
Thu 07:55:26 PM 39.0453 -90.2897 220° Southwest 408 470 32,000  Level Kansas City Center
Thu 07:56:27 PM 38.9417 -90.3989 219° Southwest 407 468 32,000  Level Kansas City Center
Thu 07:57:29 PM 38.8653 -90.4803 220° Southwest 401 461 32,000  Level Kansas City Center
Thu 07:58:31 PM 38.7622 -90.5961 221° Southwest 405 466 32,000  Level Kansas City Center
Thu 07:59:32 PM 38.6783 -90.6911 221° Southwest 401 461 32,000  Level Kansas City Center
Thu 08:00:34 PM 38.5922 -90.7925 223° Southwest 405 466 32,000  Level Kansas City Center
Thu 08:01:36 PM 38.5094 -90.8867 222° Southwest 401 461 32,000  Level Kansas City Center
Thu 08:02:38 PM 38.4256 -90.9847 222° Southwest 407 468 32,000  Level Kansas City Center
Thu 08:03:39 PM 38.3431 -91.0786 222° Southwest 404 465 32,000  Level Kansas City Center
Thu 08:04:41 PM 38.2597 -91.1736 222° Southwest 403 464 32,000  Level Kansas City Center
Thu 08:05:43 PM 38.1764 -91.2675 222° Southwest 402 463 32,000  Level Kansas City Center
Thu 08:06:45 PM 38.0900 -91.3619 221° Southwest 403 464 32,000  Level Kansas City Center
Thu 08:07:47 PM 37.9900 -91.4767 222° Southwest 402 463 32,000  Level Kansas City Center
Thu 08:08:48 PM 37.9064 -91.5714 222° Southwest 402 463 32,000  Level Kansas City Center
Thu 08:09:50 PM 37.8211 -91.6658 221° Southwest 402 463 32,000  Level Kansas City Center
Thu 08:10:52 PM 37.7378 -91.7592 222° Southwest 398 458 32,000  Level Kansas City Center
Thu 08:11:53 PM 37.6525 -91.8539 221° Southwest 402 463 32,000  Level Kansas City Center
Thu 08:12:55 PM 37.5683 -91.9481 222° Southwest 401 461 32,000  Level Kansas City Center
Thu 08:13:57 PM 37.4842 -92.0417 221° Southwest 400 460 32,000  Level Kansas City Center
Thu 08:14:59 PM 37.3992 -92.1361 221° Southwest 401 461 32,000  Level Kansas City Center
Thu 08:16:00 PM 37.3147 -92.2289 221° Southwest 401 461 32,000 244 Level Kansas City Center
Thu 08:17:02 PM 37.2292 -92.3228 221° Southwest 404 465 32,500 774 Climbing Kansas City Center
Thu 08:18:04 PM 37.1456 -92.4147 221° Southwest 399 459 33,600 732 Climbing Kansas City Center
Thu 08:19:05 PM 37.0461 -92.5208 220° Southwest 390 449 34,000 195 Climbing Kansas City Center
Thu 08:20:07 PM 36.9628 -92.6111 221° Southwest 392 451 34,000  Level Kansas City Center
Thu 08:21:09 PM 36.8781 -92.7014 220° Southwest 396 456 34,000  Level Kansas City Center
Thu 08:21:56 PM 36.8106 -92.7800 223° Southwest 398 458 34,000  Level Memphis Center
Thu 08:22:56 PM 36.7294 -92.8681 221° Southwest 398 458 34,000  Level Memphis Center
Thu 08:23:56 PM 36.6444 -92.9508 218° Southwest 398 458 34,000  Level Memphis Center
Thu 08:24:56 PM 36.5533 -93.0281 214° Southwest 398 458 34,000  Level Memphis Center
Thu 08:25:56 PM 36.4642 -93.1050 215° Southwest 398 458 34,000  Level Memphis Center
Thu 08:26:56 PM 36.3811 -93.1769 215° Southwest 398 458 34,000  Level Memphis Center
Thu 08:27:56 PM 36.2919 -93.2536 215° Southwest 403 464 34,000  Level Memphis Center
Thu 08:28:56 PM 36.2025 -93.3303 215° Southwest 403 464 34,000  Level Memphis Center
Thu 08:29:56 PM 36.1131 -93.4067 215° Southwest 403 464 34,000  Level Memphis Center
Thu 08:30:56 PM 36.0128 -93.4953 216° Southwest 403 464 34,000  Level Memphis Center
Thu 08:31:56 PM 35.9214 -93.5686 213° Southwest 409 471 34,000  Level Memphis Center
Thu 08:32:56 PM 35.8317 -93.6472 215° Southwest 404 465 34,000  Level Memphis Center
Thu 08:33:56 PM 35.7400 -93.7228 214° Southwest 404 465 34,000  Level Memphis Center
Thu 08:34:56 PM 35.6483 -93.8008 215° Southwest 404 465 34,000  Level Memphis Center
Thu 08:35:56 PM 35.5564 -93.8786 215° Southwest 404 465 34,000  Level Memphis Center
Thu 08:36:56 PM 35.4686 -93.9567 216° Southwest 404 465 34,000  Level Memphis Center
Thu 08:37:56 PM 35.3747 -94.0314 213° Southwest 404 465 34,000  Level Memphis Center
Thu 08:38:56 PM 35.2828 -94.1089 215° Southwest 404 465 34,000  Level Memphis Center
Thu 08:41:03 PM 35.0978 -94.2644 215° Southwest 403 464 34,000  Level Fort Worth Center
Thu 08:42:03 PM 35.0078 -94.3414 215° Southwest 395 455 34,000  Level Fort Worth Center
Thu 08:43:03 PM 34.9158 -94.4156 213° Southwest 388 447 34,000  Level Fort Worth Center
Thu 08:44:03 PM 34.8236 -94.4922 214° Southwest 388 447 34,000  Level Fort Worth Center
Thu 08:45:03 PM 34.7336 -94.5683 215° Southwest 388 447 34,000  Level Fort Worth Center
Thu 08:46:03 PM 34.6414 -94.6447 214° Southwest 388 447 34,000  Level Fort Worth Center
Thu 08:47:03 PM 34.5492 -94.7183 213° Southwest 388 447 34,000  Level Fort Worth Center
Thu 08:48:03 PM 34.4569 -94.7942 214° Southwest 398 458 34,000  Level Fort Worth Center
Thu 08:49:03 PM 34.3686 -94.8672 214° Southwest 398 458 34,000  Level Fort Worth Center
Thu 08:50:03 PM 34.2764 -94.9431 214° Southwest 398 458 34,000  Level Fort Worth Center
Thu 08:51:03 PM 34.1858 -95.0133 213° Southwest 393 452 34,000  Level Fort Worth Center
Thu 08:52:03 PM 34.0933 -95.0886 214° Southwest 393 452 34,000  Level Fort Worth Center
Thu 08:53:03 PM 34.0008 -95.1636 214° Southwest 393 452 34,000  Level Fort Worth Center
Thu 08:54:03 PM 33.9083 -95.2361 213° Southwest 398 458 34,000  Level Fort Worth Center
Thu 08:55:03 PM 33.8197 -95.3083 214° Southwest 398 458 34,000  Level Fort Worth Center
Thu 08:56:03 PM 33.7250 -95.3856 214° Southwest 398 458 34,000  Level Fort Worth Center
Thu 08:57:03 PM 33.6342 -95.4550 212° Southwest 398 458 34,000  Level Fort Worth Center
Thu 08:58:03 PM 33.5436 -95.5269 214° Southwest 398 458 34,000  Level Fort Worth Center
Thu 08:59:03 PM 33.4447 -95.6086 215° Southwest 398 458 34,000  Level Fort Worth Center
Thu 09:00:03 PM 33.3600 -95.6750 213° Southwest 398 458 34,000  Level Fort Worth Center
Thu 09:01:03 PM 33.2608 -95.7539 214° Southwest 398 458 34,000  Level Fort Worth Center
Thu 09:02:03 PM 33.1781 -95.8175 213° Southwest 398 458 34,000  Level Fort Worth Center
Thu 09:03:03 PM 33.0769 -95.8986 214° Southwest 398 458 34,000  Level Fort Worth Center
Thu 09:04:03 PM 32.9919 -95.9619 212° Southwest 398 458 34,000  Level Fort Worth Center
Thu 09:05:03 PM 32.8906 -96.0428 214° Southwest 398 458 34,000  Level Fort Worth Center
Thu 09:06:03 PM 32.7975 -96.1133 213° Southwest 398 458 34,000  Level Fort Worth Center
Thu 09:07:03 PM 32.7064 -96.1864 214° Southwest 398 458 34,000  Level Fort Worth Center
Thu 09:08:03 PM 32.6131 -96.2567 212° Southwest 398 458 34,000  Level Fort Worth Center
Thu 09:09:03 PM 32.5303 -96.3217 214° Southwest 398 458 34,000  Level Fort Worth Center
Thu 09:10:03 PM 32.4286 -96.3994 213° Southwest 398 458 34,000  Level Fort Worth Center
Thu 09:11:03 PM 32.3433 -96.4642 213° Southwest 398 458 34,000 -250 Level Fort Worth Center
Thu 09:12:03 PM 32.2586 -96.5608 224° Southwest 398 458 33,500 -800 Descending Fort Worth Center
Thu 09:13:03 PM 32.1922 -96.6622 232° Southwest 393 452 32,400 -1,250 Descending Fort Worth Center
Thu 09:14:03 PM 32.1239 -96.7706 233° Southwest 410 472 31,000 -1,450 Descending Fort Worth Center
Thu 09:15:03 PM 32.0597 -96.8764 234° Southwest 410 472 29,500 -1,500 Descending Fort Worth Center
Thu 09:16:03 PM 31.9892 -96.9822 232° Southwest 416 479 28,000 -1,500 Descending Fort Worth Center
Thu 09:17:03 PM 31.9039 -97.0708 221° Southwest 416 479 26,500 -1,514 Descending Fort Worth Center
Thu 09:17:54 PM 31.8056 -97.0875 188° South 435 501 25,200 -1,487 Descending Houston Center
Thu 09:18:56 PM 31.6875 -97.1106 189° South 429 494 23,700 -1,220 Descending Houston Center
Thu 09:19:57 PM 31.5817 -97.1344 191° South 389 448 22,700 -976 Descending Houston Center
Thu 09:20:59 PM 31.4758 -97.1542 189° South 382 440 21,700 -976 Descending Houston Center
Thu 09:22:00 PM 31.3711 -97.1744 189° South 377 434 20,700 -878 Descending Houston Center
Thu 09:23:02 PM 31.2686 -97.1961 190° South 373 429 19,900 -1,220 Descending Houston Center
Thu 09:24:03 PM 31.1664 -97.2231 193° South 372 428 18,200 -1,659 Descending Houston Center
Thu 09:25:05 PM 31.0731 -97.2625 200° South 357 411 16,500 -1,902 Descending Houston Center
Thu 09:26:06 PM 30.9669 -97.3044 199° South 350 403 14,300 -1,610 Descending Houston Center
Thu 09:27:08 PM 30.8761 -97.3383 198° South 352 405 13,200 -976 Descending Houston Center
Thu 09:28:09 PM 30.7881 -97.3725 198° South 337 388 12,300 -885 Descending Houston Center
Thu 09:29:10 PM 30.7042 -97.4042 198° South 319 367 11,400 -1,220 Descending Houston Center
Thu 09:30:12 PM 30.6281 -97.4344 199° South 296 341 9,800 -1,561 Descending Houston Center
Thu 09:31:13 PM 30.5514 -97.4633 198° South 287 330 8,200 -1,512 Descending Houston Center
Thu 09:32:15 PM 30.4767 -97.4919 198° South 283 326 6,700 -1,073 Descending Houston Center
Thu 09:33:16 PM 30.4047 -97.5197 198° South 273 314 6,000 -344 Descending Houston Center
Thu 09:34:17 PM 30.3419 -97.5389 195° South 240 276 6,000  Level Houston Center
Thu 09:35:19 PM 30.2739 -97.5453 185° South 210 242 6,000  Level Houston Center
Thu 09:36:20 PM 30.2181 -97.5525 186° South 202 232 6,000 -541 Level Houston Center
Thu 09:37:21 PM 30.1589 -97.5578 184° South 207 238 4,900 -976 Descending Houston Center
Thu 09:38:23 PM 30.0944 -97.5644 185° South 227 261 4,000 -439 Descending Houston Center
Thu 09:39:24 PM 30.0281 -97.5719 186° South 230 265 4,000 -344 Level Houston Center
Thu 09:40:25 PM 29.9994 -97.6217 236° Southwest 193 222 3,300 -683 Descending Houston Center
Thu 09:41:27 PM 30.0200 -97.6511 309° West 147 169 2,600 -677 Descending Houston Center

Login

Don't have an account? Register now (free) for customized features, flight alerts, and more!